createdAt,value
2017-05-04T00:00:47.870Z,0
2017-05-04T00:01:47.917Z,0
2017-05-04T00:02:48.271Z,0
2017-05-04T00:03:48.343Z,0
2017-05-04T00:04:48.384Z,0
2017-05-04T00:05:48.436Z,0
2017-05-04T00:06:48.482Z,0
2017-05-04T00:07:48.541Z,0
2017-05-04T00:08:48.591Z,0
2017-05-04T00:09:48.646Z,0
2017-05-04T00:10:48.698Z,0
2017-05-04T00:11:48.751Z,0
2017-05-04T00:12:48.806Z,0
2017-05-04T00:13:48.855Z,0
2017-05-04T00:14:48.911Z,0
2017-05-04T00:15:48.669Z,0
2017-05-04T00:16:49.024Z,0
2017-05-04T00:17:49.069Z,0
2017-05-04T00:18:49.125Z,0
2017-05-04T00:19:48.876Z,0
2017-05-04T00:20:48.924Z,0
2017-05-04T00:21:49.282Z,0
2017-05-04T00:22:49.331Z,0
2017-05-04T00:23:49.390Z,0
2017-05-04T00:24:49.442Z,0
2017-05-04T00:25:49.492Z,0
2017-05-04T00:26:49.546Z,0
2017-05-04T00:27:49.601Z,0
2017-05-04T00:28:49.651Z,0
2017-05-04T00:29:49.707Z,0
2017-05-04T00:30:49.453Z,0
2017-05-04T00:31:49.511Z,0
2017-05-04T00:32:49.867Z,0
2017-05-04T00:33:49.620Z,0
2017-05-04T00:34:49.668Z,0
2017-05-04T00:35:50.023Z,0
2017-05-04T00:36:50.073Z,0
2017-05-04T00:37:50.132Z,0
2017-05-04T00:38:50.181Z,0
2017-05-04T00:39:50.236Z,0
2017-05-04T00:40:50.287Z,0
2017-05-04T00:41:50.339Z,0
2017-05-04T00:42:50.393Z,0
2017-05-04T00:43:50.450Z,0
2017-05-04T00:44:50.501Z,0
2017-05-04T00:45:50.552Z,0
2017-05-04T00:46:50.605Z,0
2017-05-04T00:47:50.656Z,0
2017-05-04T00:48:50.716Z,0
2017-05-04T00:49:50.765Z,0
2017-05-04T00:50:50.818Z,0
2017-05-04T00:51:50.871Z,0
2017-05-04T00:52:50.627Z,0
2017-05-04T00:53:50.987Z,0
2017-05-04T00:54:51.029Z,0
2017-05-04T00:55:51.083Z,0
2017-05-04T00:56:51.136Z,0
2017-05-04T00:57:51.191Z,0
2017-05-04T00:58:51.245Z,0
2017-05-04T00:59:51.309Z,0
2017-05-04T01:00:51.349Z,0
2017-05-04T01:01:51.605Z,0
2017-05-04T01:02:51.458Z,0
2017-05-04T01:03:51.512Z,0
2017-05-04T01:04:51.562Z,0
2017-05-04T01:05:51.616Z,0
2017-05-04T01:06:51.666Z,0
2017-05-04T01:07:51.719Z,0
2017-05-04T01:08:51.770Z,0
2017-05-04T01:09:51.828Z,0
2017-05-04T01:10:51.874Z,0
2017-05-04T01:11:52.146Z,0
2017-05-04T01:12:51.984Z,0
2017-05-04T01:13:52.034Z,0
2017-05-04T01:14:52.092Z,0
2017-05-04T01:15:52.146Z,0
2017-05-04T01:16:52.194Z,0
2017-05-04T01:17:52.248Z,0
2017-05-04T01:18:52.302Z,0
2017-05-04T01:19:52.361Z,0
2017-05-04T01:20:52.407Z,0
2017-05-04T01:21:52.490Z,0
2017-05-04T01:22:52.513Z,0
2017-05-04T01:23:52.569Z,0
2017-05-04T01:24:52.621Z,0
2017-05-04T01:25:52.673Z,0
2017-05-04T01:26:52.722Z,0
2017-05-04T01:27:52.782Z,0
2017-05-04T01:28:52.832Z,0
2017-05-04T01:29:52.888Z,0
2017-05-04T01:30:52.934Z,0
2017-05-04T01:31:52.992Z,0
2017-05-04T01:32:53.044Z,0
2017-05-04T01:33:53.096Z,0
2017-05-04T01:34:53.147Z,0
2017-05-04T01:35:53.200Z,0
2017-05-04T01:36:53.251Z,0
2017-05-04T01:37:53.309Z,0
2017-05-04T01:38:53.388Z,0
2017-05-04T01:39:53.411Z,0
2017-05-04T01:40:53.670Z,0
2017-05-04T01:41:53.521Z,0
2017-05-04T01:42:53.780Z,0
2017-05-04T01:43:53.627Z,0
2017-05-04T01:44:53.704Z,0
2017-05-04T01:46:07.114Z,0
2017-05-04T01:46:53.789Z,0
2017-05-04T01:47:53.841Z,0
2017-05-04T01:48:53.893Z,0
2017-05-04T01:49:53.952Z,0
2017-05-04T01:50:53.995Z,0
2017-05-04T01:51:54.048Z,0
2017-05-04T01:52:54.107Z,0
2017-05-04T01:53:54.163Z,0
2017-05-04T01:54:54.208Z,0
2017-05-04T01:55:54.261Z,0
2017-05-04T01:56:54.314Z,0
2017-05-04T01:57:54.067Z,0
2017-05-04T01:58:54.119Z,0
2017-05-04T01:59:54.476Z,0
2017-05-04T02:00:54.527Z,0
2017-05-04T02:01:54.576Z,0
2017-05-04T02:02:54.636Z,0
2017-05-04T02:03:54.686Z,0
2017-05-04T02:04:54.755Z,0
2017-05-04T02:05:54.791Z,0
2017-05-04T02:06:54.843Z,0
2017-05-04T02:07:54.902Z,0
2017-05-04T02:08:54.948Z,0
2017-05-04T02:09:55.001Z,0
2017-05-04T02:10:54.755Z,0
2017-05-04T02:11:54.808Z,0
2017-05-04T02:12:55.164Z,0
2017-05-04T02:13:55.211Z,0
2017-05-04T02:14:55.269Z,0
2017-05-04T02:15:55.521Z,0
2017-05-04T02:16:55.374Z,0
2017-05-04T02:17:55.426Z,0
2017-05-04T02:18:55.481Z,0
2017-05-04T02:19:55.527Z,0
2017-05-04T02:20:55.584Z,0
2017-05-04T02:21:55.342Z,0
2017-05-04T02:22:55.694Z,0
2017-05-04T02:23:55.749Z,0
2017-05-04T02:24:55.797Z,0
2017-05-04T02:25:55.850Z,0
2017-05-04T02:26:55.903Z,0
2017-05-04T02:27:55.954Z,0
2017-05-04T02:28:56.010Z,0
2017-05-04T02:29:56.062Z,0
2017-05-04T02:30:56.120Z,0
2017-05-04T02:31:56.175Z,0
2017-05-04T02:32:56.221Z,0
2017-05-04T02:33:56.270Z,0
2017-05-04T02:34:56.028Z,0
2017-05-04T02:35:56.078Z,0
2017-05-04T02:36:56.126Z,0
2017-05-04T02:37:56.483Z,0
2017-05-04T02:38:56.541Z,0
2017-05-04T02:39:56.587Z,0
2017-05-04T02:40:56.642Z,0
2017-05-04T02:41:56.695Z,0
2017-05-04T02:42:56.749Z,0
2017-05-04T02:43:56.805Z,0
2017-05-04T02:44:56.853Z,0
2017-05-04T02:45:56.907Z,0
2017-05-04T02:46:56.959Z,0
2017-05-04T02:47:57.011Z,0
2017-05-04T02:48:56.977Z,0
2017-05-04T02:49:57.022Z,0
2017-05-04T02:50:57.172Z,0
2017-05-04T02:51:56.922Z,0
2017-05-04T02:52:56.976Z,0
2017-05-04T02:53:57.028Z,0
2017-05-04T02:54:57.389Z,0
2017-05-04T02:55:57.132Z,0
2017-05-04T02:56:57.184Z,0
2017-05-04T02:57:57.541Z,0
2017-05-04T02:58:57.637Z,0
2017-05-04T02:59:57.647Z,0
2017-05-04T03:00:57.699Z,0
2017-05-04T03:01:57.754Z,0
2017-05-04T03:02:57.820Z,0
2017-05-04T03:03:57.867Z,0
2017-05-04T03:04:57.918Z,0
2017-05-04T03:05:57.662Z,0
2017-05-04T03:06:58.018Z,0
2017-05-04T03:07:58.074Z,0
2017-05-04T03:08:58.124Z,0
2017-05-04T03:09:58.176Z,0
2017-05-04T03:10:57.930Z,0
2017-05-04T03:11:57.980Z,0
2017-05-04T03:12:58.032Z,0
2017-05-04T03:13:58.083Z,0
2017-05-04T03:14:58.443Z,0
2017-05-04T03:15:58.494Z,0
2017-05-04T03:16:58.546Z,0
2017-05-04T03:17:58.598Z,0
2017-05-04T03:18:58.653Z,0
2017-05-04T03:19:58.402Z,0
2017-05-04T03:20:58.458Z,0
2017-05-04T03:21:58.809Z,0
2017-05-04T03:22:59.063Z,0
2017-05-04T03:23:59.121Z,0
2017-05-04T03:24:58.666Z,0
2017-05-04T03:25:59.019Z,0
2017-05-04T03:26:58.768Z,0
2017-05-04T03:27:59.341Z,0
2017-05-04T03:28:58.880Z,0
2017-05-04T03:29:59.232Z,0
2017-05-04T03:30:59.283Z,0
2017-05-04T03:31:59.338Z,0
2017-05-04T03:32:59.391Z,0
2017-05-04T03:33:59.450Z,4
2017-05-04T03:34:59.493Z,4
2017-05-04T03:35:59.552Z,4
2017-05-04T03:36:59.608Z,0
2017-05-04T03:37:59.658Z,4
2017-05-04T03:38:59.708Z,4
2017-05-04T03:39:59.763Z,8
2017-05-04T03:40:59.817Z,4
2017-05-04T03:41:59.866Z,8
2017-05-04T03:42:59.923Z,12
2017-05-04T03:43:59.973Z,12
2017-05-04T03:45:00.024Z,12
2017-05-04T03:46:00.076Z,16
2017-05-04T03:47:00.132Z,16
2017-05-04T03:48:00.387Z,16
2017-05-04T03:49:00.237Z,24
2017-05-04T03:50:00.286Z,24
2017-05-04T03:51:00.342Z,28
2017-05-04T03:52:00.414Z,28
2017-05-04T03:53:00.450Z,32
2017-05-04T03:54:00.509Z,40
2017-05-04T03:55:00.555Z,44
2017-05-04T03:56:00.309Z,48
2017-05-04T03:57:00.656Z,56
2017-05-04T03:58:00.710Z,60
2017-05-04T03:59:00.768Z,64
2017-05-04T04:00:00.816Z,68
2017-05-04T04:01:00.871Z,72
2017-05-04T04:02:01.132Z,76
2017-05-04T04:03:00.981Z,84
2017-05-04T04:04:01.028Z,88
2017-05-04T04:05:01.085Z,92
2017-05-04T04:06:01.135Z,104
2017-05-04T04:07:01.188Z,112
2017-05-04T04:08:01.256Z,120
2017-05-04T04:09:01.291Z,124
2017-05-04T04:10:01.345Z,128
2017-05-04T04:11:01.408Z,132
2017-05-04T04:12:01.148Z,140
2017-05-04T04:13:01.504Z,144
2017-05-04T04:14:01.556Z,152
2017-05-04T04:15:01.610Z,160
2017-05-04T04:16:01.659Z,164
2017-05-04T04:17:01.720Z,168
2017-05-04T04:18:01.771Z,180
2017-05-04T04:19:01.821Z,184
2017-05-04T04:20:01.878Z,192
2017-05-04T04:21:01.925Z,200
2017-05-04T04:22:01.983Z,208
2017-05-04T04:23:02.032Z,216
2017-05-04T04:24:02.086Z,228
2017-05-04T04:25:02.134Z,240
2017-05-04T04:26:02.194Z,248
2017-05-04T04:27:02.247Z,260
2017-05-04T04:28:01.994Z,276
2017-05-04T04:29:02.046Z,284
2017-05-04T04:30:02.404Z,296
2017-05-04T04:31:02.454Z,304
2017-05-04T04:32:02.511Z,316
2017-05-04T04:33:02.562Z,320
2017-05-04T04:34:02.615Z,332
2017-05-04T04:35:02.664Z,336
2017-05-04T04:36:02.720Z,344
2017-05-04T04:37:02.774Z,352
2017-05-04T04:38:02.824Z,360
2017-05-04T04:39:02.878Z,368
2017-05-04T04:40:02.933Z,376
2017-05-04T04:41:02.987Z,388
2017-05-04T04:42:03.038Z,396
2017-05-04T04:43:03.090Z,408
2017-05-04T04:44:03.142Z,412
2017-05-04T04:45:03.192Z,428
2017-05-04T04:46:03.251Z,440
2017-05-04T04:47:03.298Z,460
2017-05-04T04:48:03.353Z,472
2017-05-04T04:49:03.426Z,464
2017-05-04T04:50:03.455Z,464
2017-05-04T04:51:03.516Z,464
2017-05-04T04:52:03.569Z,472
2017-05-04T04:53:03.322Z,476
2017-05-04T04:54:03.669Z,484
2017-05-04T04:55:03.720Z,492
2017-05-04T04:56:03.472Z,512
2017-05-04T04:57:03.832Z,528
2017-05-04T04:58:03.882Z,548
2017-05-04T04:59:03.939Z,572
2017-05-04T05:00:03.988Z,588
2017-05-04T05:01:04.044Z,596
2017-05-04T05:02:04.095Z,600
2017-05-04T05:03:04.149Z,596
2017-05-04T05:04:04.210Z,600
2017-05-04T05:05:04.256Z,592
2017-05-04T05:06:04.309Z,580
2017-05-04T05:07:04.361Z,576
2017-05-04T05:08:04.410Z,588
2017-05-04T05:09:04.465Z,604
2017-05-04T05:10:04.517Z,640
2017-05-04T05:11:04.268Z,672
2017-05-04T05:12:04.620Z,692
2017-05-04T05:13:04.678Z,696
2017-05-04T05:14:04.728Z,712
2017-05-04T05:15:04.782Z,756
2017-05-04T05:16:04.833Z,784
2017-05-04T05:17:04.888Z,792
2017-05-04T05:18:04.938Z,820
2017-05-04T05:19:05.006Z,840
2017-05-04T05:20:05.043Z,864
2017-05-04T05:21:05.102Z,888
2017-05-04T05:22:05.151Z,924
2017-05-04T05:23:05.206Z,956
2017-05-04T05:24:05.258Z,1020
2017-05-04T05:25:05.011Z,1084
2017-05-04T05:26:05.365Z,1148
2017-05-04T05:27:05.425Z,1232
2017-05-04T05:28:05.473Z,1312
2017-05-04T05:29:05.524Z,1360
2017-05-04T05:30:05.582Z,1408
2017-05-04T05:31:05.629Z,1448
2017-05-04T05:32:05.684Z,1468
2017-05-04T05:33:05.737Z,1500
2017-05-04T05:34:05.789Z,1504
2017-05-04T05:35:05.539Z,1512
2017-05-04T05:36:05.894Z,1532
2017-05-04T05:37:05.951Z,1564
2017-05-04T05:38:05.701Z,1612
2017-05-04T05:39:06.054Z,1656
2017-05-04T05:40:06.106Z,1668
2017-05-04T05:41:05.855Z,1740
2017-05-04T05:42:06.213Z,1836
2017-05-04T05:43:06.269Z,1900
2017-05-04T05:44:06.317Z,1968
2017-05-04T05:45:06.376Z,2080
2017-05-04T05:46:06.425Z,2160
2017-05-04T05:47:06.481Z,2260
2017-05-04T05:48:06.531Z,2352
2017-05-04T05:49:06.593Z,2404
2017-05-04T05:50:06.639Z,2480
2017-05-04T05:51:06.688Z,2548
2017-05-04T05:52:06.747Z,2584
2017-05-04T05:53:06.805Z,2524
2017-05-04T05:54:06.849Z,2616
2017-05-04T05:55:06.903Z,2604
2017-05-04T05:56:06.955Z,2624
2017-05-04T05:57:07.014Z,2632
2017-05-04T05:58:07.061Z,2620
2017-05-04T05:59:06.816Z,2564
2017-05-04T06:00:07.172Z,2496
2017-05-04T06:01:07.223Z,2476
2017-05-04T06:02:07.272Z,2444
2017-05-04T06:03:07.334Z,2540
2017-05-04T06:04:07.379Z,2584
2017-05-04T06:05:07.439Z,2632
2017-05-04T06:06:07.517Z,2676
2017-05-04T06:07:07.548Z,2676
2017-05-04T06:08:07.595Z,2756
2017-05-04T06:09:07.648Z,2756
2017-05-04T06:10:07.710Z,2852
2017-05-04T06:11:07.756Z,2900
2017-05-04T06:12:07.837Z,2980
2017-05-04T06:13:07.866Z,2944
2017-05-04T06:14:07.918Z,3040
2017-05-04T06:15:07.668Z,3128
2017-05-04T06:16:08.026Z,3072
2017-05-04T06:17:08.077Z,3188
2017-05-04T06:18:08.132Z,3024
2017-05-04T06:19:08.185Z,2876
2017-05-04T06:20:08.236Z,2856
2017-05-04T06:21:08.298Z,2964
2017-05-04T06:22:08.042Z,2972
2017-05-04T06:23:08.394Z,2972
2017-05-04T06:24:08.454Z,2992
2017-05-04T06:25:08.505Z,2980
2017-05-04T06:26:08.558Z,2972
2017-05-04T06:27:08.609Z,2996
2017-05-04T06:28:08.669Z,2976
2017-05-04T06:29:08.724Z,2908
2017-05-04T06:30:08.473Z,2824
2017-05-04T06:31:08.528Z,2828
2017-05-04T06:32:08.883Z,2820
2017-05-04T06:33:08.939Z,2840
2017-05-04T06:34:08.994Z,2912
2017-05-04T06:35:09.046Z,2936
2017-05-04T06:36:09.099Z,3012
2017-05-04T06:37:09.150Z,3068
2017-05-04T06:38:09.206Z,3164
2017-05-04T06:39:09.263Z,3228
2017-05-04T06:40:09.310Z,3296
2017-05-04T06:41:09.375Z,3304
2017-05-04T06:42:09.419Z,3336
2017-05-04T06:43:09.476Z,3352
2017-05-04T06:44:09.531Z,3256
2017-05-04T06:45:09.581Z,3204
2017-05-04T06:46:09.335Z,3144
2017-05-04T06:47:09.698Z,3172
2017-05-04T06:48:09.444Z,3240
2017-05-04T06:49:09.799Z,3228
2017-05-04T06:50:09.857Z,3236
2017-05-04T06:51:09.608Z,3324
2017-05-04T06:52:09.662Z,3320
2017-05-04T06:53:10.021Z,3376
2017-05-04T06:54:09.771Z,3412
2017-05-04T06:55:10.127Z,3388
2017-05-04T06:56:09.898Z,3316
2017-05-04T06:57:09.939Z,3224
2017-05-04T06:58:09.982Z,3280
2017-05-04T06:59:10.348Z,3328
2017-05-04T07:00:10.093Z,3364
2017-05-04T07:01:10.453Z,3544
2017-05-04T07:02:10.211Z,3508
2017-05-04T07:03:10.559Z,3532
2017-05-04T07:04:10.614Z,3528
2017-05-04T07:05:10.679Z,3496
2017-05-04T07:06:10.721Z,3560
2017-05-04T07:07:10.783Z,3516
2017-05-04T07:08:10.829Z,3576
2017-05-04T07:09:10.587Z,3596
2017-05-04T07:10:10.940Z,3640
2017-05-04T07:11:10.996Z,3668
2017-05-04T07:12:10.752Z,3652
2017-05-04T07:13:11.111Z,3672
2017-05-04T07:14:10.855Z,3700
2017-05-04T07:15:11.214Z,3816
2017-05-04T07:16:11.265Z,3884
2017-05-04T07:17:11.325Z,3820
2017-05-04T07:18:11.378Z,3888
2017-05-04T07:19:11.434Z,3868
2017-05-04T07:20:11.491Z,3888
2017-05-04T07:21:11.538Z,3936
2017-05-04T07:22:11.600Z,3980
2017-05-04T07:23:11.654Z,4064
2017-05-04T07:24:11.703Z,4136
2017-05-04T07:25:11.763Z,4184
2017-05-04T07:26:11.815Z,4084
2017-05-04T07:27:11.874Z,3976
2017-05-04T07:28:11.924Z,4004
2017-05-04T07:29:11.999Z,4040
2017-05-04T07:30:12.035Z,4004
2017-05-04T07:31:12.085Z,4044
2017-05-04T07:32:11.838Z,4108
2017-05-04T07:33:12.203Z,4156
2017-05-04T07:34:12.254Z,4316
2017-05-04T07:35:12.307Z,4412
2017-05-04T07:36:12.061Z,4588
2017-05-04T07:37:12.422Z,4536
2017-05-04T07:38:12.168Z,4488
2017-05-04T07:39:12.228Z,4492
2017-05-04T07:40:12.584Z,4484
2017-05-04T07:41:12.634Z,4512
2017-05-04T07:42:12.390Z,4736
2017-05-04T07:43:12.752Z,4828
2017-05-04T07:44:12.805Z,4952
2017-05-04T07:45:12.862Z,5040
2017-05-04T07:46:12.919Z,4996
2017-05-04T07:47:12.969Z,5052
2017-05-04T07:48:13.022Z,4988
2017-05-04T07:49:13.077Z,5196
2017-05-04T07:50:13.138Z,5388
2017-05-04T07:51:13.185Z,5492
2017-05-04T07:52:13.241Z,5476
2017-05-04T07:53:12.998Z,5472
2017-05-04T07:54:13.352Z,5396
2017-05-04T07:55:13.409Z,5388
2017-05-04T07:56:13.465Z,5440
2017-05-04T07:57:13.528Z,5564
2017-05-04T07:58:13.268Z,5620
2017-05-04T07:59:13.631Z,5708
2017-05-04T08:00:13.382Z,5460
2017-05-04T08:01:13.742Z,5608
2017-05-04T08:02:13.490Z,5544
2017-05-04T08:03:13.853Z,5784
2017-05-04T08:04:13.604Z,5892
2017-05-04T08:05:13.656Z,6228
2017-05-04T08:06:13.740Z,6248
2017-05-04T08:07:14.070Z,6228
2017-05-04T08:08:13.824Z,6328
2017-05-04T08:09:14.190Z,6404
2017-05-04T08:10:14.237Z,5856
2017-05-04T08:11:13.988Z,5964
2017-05-04T08:12:14.347Z,6100
2017-05-04T08:13:14.099Z,6208
2017-05-04T08:14:14.162Z,6244
2017-05-04T08:15:14.212Z,6040
2017-05-04T08:16:14.567Z,6084
2017-05-04T08:17:14.624Z,6200
2017-05-04T08:18:14.681Z,6112
2017-05-04T08:19:14.749Z,6096
2017-05-04T08:20:14.790Z,6112
2017-05-04T08:21:14.845Z,6004
2017-05-04T08:22:14.902Z,5944
2017-05-04T08:23:14.960Z,5932
2017-05-04T08:24:14.711Z,5940
2017-05-04T08:25:14.765Z,5808
2017-05-04T08:26:15.126Z,5768
2017-05-04T08:27:15.174Z,5716
2017-05-04T08:28:15.236Z,5612
2017-05-04T08:29:14.990Z,5664
2017-05-04T08:30:15.344Z,5732
2017-05-04T08:31:15.402Z,5312
2017-05-04T08:32:15.460Z,4972
2017-05-04T08:33:15.512Z,4848
2017-05-04T08:34:15.266Z,4816
2017-05-04T08:35:15.627Z,4844
2017-05-04T08:36:15.688Z,4964
2017-05-04T08:37:15.444Z,5088
2017-05-04T08:38:15.795Z,5188
2017-05-04T08:39:15.851Z,5300
2017-05-04T08:40:15.901Z,5320
2017-05-04T08:41:15.959Z,5336
2017-05-04T08:42:16.039Z,5376
2017-05-04T08:43:16.075Z,5380
2017-05-04T08:44:16.127Z,5420
2017-05-04T08:45:16.184Z,5412
2017-05-04T08:46:16.241Z,5340
2017-05-04T08:47:15.997Z,5388
2017-05-04T08:48:16.051Z,5412
2017-05-04T08:49:16.106Z,5356
2017-05-04T08:50:16.159Z,5248
2017-05-04T08:51:16.521Z,5196
2017-05-04T08:52:16.276Z,5280
2017-05-04T08:53:16.638Z,5420
2017-05-04T08:54:16.386Z,5540
2017-05-04T08:55:16.442Z,5652
2017-05-04T08:56:16.803Z,5732
2017-05-04T08:57:16.882Z,5716
2017-05-04T08:58:16.909Z,5532
2017-05-04T08:59:16.968Z,5408
2017-05-04T09:00:16.720Z,5352
2017-05-04T09:01:16.784Z,5456
2017-05-04T09:02:17.134Z,5848
2017-05-04T09:03:17.194Z,6420
2017-05-04T09:04:17.247Z,6752
2017-05-04T09:05:17.302Z,6864
2017-05-04T09:06:17.056Z,6920
2017-05-04T09:07:17.420Z,7060
2017-05-04T09:08:17.479Z,7068
2017-05-04T09:09:17.530Z,7240
2017-05-04T09:10:17.288Z,7652
2017-05-04T09:11:17.651Z,8216
2017-05-04T09:12:17.718Z,8328
2017-05-04T09:13:17.752Z,8620
2017-05-04T09:14:17.507Z,8600
2017-05-04T09:15:17.863Z,8004
2017-05-04T09:16:17.929Z,7544
2017-05-04T09:17:17.983Z,7888
2017-05-04T09:18:18.039Z,8468
2017-05-04T09:19:18.091Z,8524
2017-05-04T09:20:18.149Z,7896
2017-05-04T09:21:18.210Z,8704
2017-05-04T09:22:18.261Z,8736
2017-05-04T09:23:18.026Z,8528
2017-05-04T09:24:18.077Z,8332
2017-05-04T09:25:18.431Z,8648
2017-05-04T09:26:17.891Z,9040
2017-05-04T09:27:18.545Z,9796
2017-05-04T09:28:18.600Z,9744
2017-05-04T09:29:18.660Z,8132
2017-05-04T09:30:18.717Z,7828
2017-05-04T09:31:18.168Z,8224
2017-05-04T09:32:18.529Z,7636
2017-05-04T09:33:18.887Z,7032
2017-05-04T09:34:18.341Z,6672
2017-05-04T09:35:18.998Z,6848
2017-05-04T09:36:18.758Z,7304
2017-05-04T09:37:19.148Z,7908
2017-05-04T09:38:18.865Z,7948
2017-05-04T09:39:19.226Z,7424
2017-05-04T09:40:19.288Z,7672
2017-05-04T09:41:19.339Z,7636
2017-05-04T09:42:19.410Z,7504
2017-05-04T09:43:19.460Z,7436
2017-05-04T09:44:19.507Z,7612
2017-05-04T09:45:19.573Z,7436
2017-05-04T09:46:19.631Z,7188
2017-05-04T09:47:19.680Z,6972
2017-05-04T09:48:19.737Z,6832
2017-05-04T09:49:19.496Z,6756
2017-05-04T09:50:19.550Z,6784
2017-05-04T09:51:19.607Z,6780
2017-05-04T09:52:19.968Z,6604
2017-05-04T09:53:19.724Z,6096
2017-05-04T09:54:20.085Z,5912
2017-05-04T09:55:19.835Z,6120
2017-05-04T09:56:20.191Z,5728
2017-05-04T09:57:20.255Z,5596
2017-05-04T09:58:20.008Z,5724
2017-05-04T09:59:20.366Z,5884
2017-05-04T10:00:20.425Z,6048
2017-05-04T10:01:20.478Z,6320
2017-05-04T10:02:20.534Z,6380
2017-05-04T10:03:20.601Z,6288
2017-05-04T10:04:20.648Z,6184
2017-05-04T10:05:20.710Z,6068
2017-05-04T10:06:20.766Z,5980
2017-05-04T10:07:20.820Z,5852
2017-05-04T10:08:20.881Z,5844
2017-05-04T10:09:20.936Z,5920
2017-05-04T10:10:20.994Z,6064
2017-05-04T10:11:21.049Z,6252
2017-05-04T10:12:20.838Z,6448
2017-05-04T10:13:21.161Z,6644
2017-05-04T10:14:21.220Z,6752
2017-05-04T10:15:21.276Z,6828
2017-05-04T10:16:21.334Z,6884
2017-05-04T10:17:21.389Z,6916
2017-05-04T10:18:21.444Z,6920
2017-05-04T10:19:21.504Z,6964
2017-05-04T10:20:21.559Z,7008
2017-05-04T10:21:21.623Z,7100
2017-05-04T10:22:21.677Z,7252
2017-05-04T10:23:21.432Z,7348
2017-05-04T10:24:21.490Z,7468
2017-05-04T10:25:21.543Z,7568
2017-05-04T10:26:21.900Z,7660
2017-05-04T10:27:21.960Z,7708
2017-05-04T10:28:22.020Z,7808
2017-05-04T10:29:22.084Z,8004
2017-05-04T10:30:22.138Z,8312
2017-05-04T10:31:22.189Z,8508
2017-05-04T10:32:22.245Z,8680
2017-05-04T10:33:22.303Z,8956
2017-05-04T10:34:22.363Z,9468
2017-05-04T10:35:22.413Z,9240
2017-05-04T10:36:22.470Z,8808
2017-05-04T10:37:22.539Z,8592
2017-05-04T10:38:22.589Z,8312
2017-05-04T10:39:22.643Z,8040
2017-05-04T10:40:22.402Z,7732
2017-05-04T10:41:22.756Z,7700
2017-05-04T10:42:22.816Z,8044
2017-05-04T10:43:22.874Z,7776
2017-05-04T10:44:22.928Z,7836
2017-05-04T10:45:22.984Z,8000
2017-05-04T10:46:23.044Z,8308
2017-05-04T10:47:23.105Z,8672
2017-05-04T10:48:23.158Z,8668
2017-05-04T10:49:23.216Z,8108
2017-05-04T10:50:23.275Z,7384
2017-05-04T10:51:23.330Z,7208
2017-05-04T10:52:23.385Z,6668
2017-05-04T10:53:23.442Z,5940
2017-05-04T10:54:23.506Z,5840
2017-05-04T10:55:23.560Z,5784
2017-05-04T10:56:23.616Z,6004
2017-05-04T10:57:23.677Z,5820
2017-05-04T10:58:23.734Z,5504
2017-05-04T10:59:23.791Z,5068
2017-05-04T11:00:23.546Z,4664
2017-05-04T11:01:23.599Z,4304
2017-05-04T11:02:23.686Z,3880
2017-05-04T11:03:24.016Z,3588
2017-05-04T11:04:24.074Z,3428
2017-05-04T11:05:23.829Z,3364
2017-05-04T11:06:24.188Z,3332
2017-05-04T11:07:23.943Z,3320
2017-05-04T11:08:24.309Z,3360
2017-05-04T11:09:24.065Z,3420
2017-05-04T11:10:24.413Z,3536
2017-05-04T11:11:24.473Z,3684
2017-05-04T11:12:24.228Z,3808
2017-05-04T11:13:24.284Z,3852
2017-05-04T11:14:24.654Z,3848
2017-05-04T11:15:24.701Z,3844
2017-05-04T11:16:24.764Z,3916
2017-05-04T11:17:24.519Z,4040
2017-05-04T11:18:24.874Z,4128
2017-05-04T11:19:24.926Z,4164
2017-05-04T11:20:25.014Z,3972
2017-05-04T11:21:24.741Z,4504
2017-05-04T11:22:25.101Z,4728
2017-05-04T11:23:25.158Z,4452
2017-05-04T11:24:25.214Z,4708
2017-05-04T11:25:25.273Z,4524
2017-05-04T11:26:25.326Z,4176
2017-05-04T11:27:25.384Z,4256
2017-05-04T11:28:25.439Z,4204
2017-05-04T11:29:25.499Z,4200
2017-05-04T11:30:25.558Z,4400
2017-05-04T11:31:25.614Z,4432
2017-05-04T11:32:25.671Z,4488
2017-05-04T11:33:25.430Z,4604
2017-05-04T11:34:25.781Z,4796
2017-05-04T11:35:25.841Z,4900
2017-05-04T11:36:25.895Z,5076
2017-05-04T11:37:25.649Z,5244
2017-05-04T11:38:26.015Z,5528
2017-05-04T11:39:26.063Z,5756
2017-05-04T11:40:26.126Z,5940
2017-05-04T11:41:26.184Z,5988
2017-05-04T11:42:26.241Z,5860
2017-05-04T11:43:26.299Z,5496
2017-05-04T11:44:26.362Z,5160
2017-05-04T11:45:26.411Z,4736
2017-05-04T11:46:26.162Z,4444
2017-05-04T11:47:26.528Z,4200
2017-05-04T11:48:26.575Z,3988
2017-05-04T11:49:26.642Z,3912
2017-05-04T11:50:26.389Z,3816
2017-05-04T11:51:26.749Z,3784
2017-05-04T11:52:26.805Z,3776
2017-05-04T11:53:26.863Z,3760
2017-05-04T11:54:26.921Z,3752
2017-05-04T11:55:26.980Z,3728
2017-05-04T11:56:27.033Z,3680
2017-05-04T11:57:27.089Z,3604
2017-05-04T11:58:27.143Z,3528
2017-05-04T11:59:27.207Z,3440
2017-05-04T12:00:27.265Z,3372
2017-05-04T12:01:27.012Z,3308
2017-05-04T12:02:27.075Z,3244
2017-05-04T12:03:27.129Z,3208
2017-05-04T12:04:27.185Z,3180
2017-05-04T12:05:27.245Z,3164
2017-05-04T12:06:27.601Z,3184
2017-05-04T12:07:27.660Z,3208
2017-05-04T12:08:27.412Z,3228
2017-05-04T12:09:27.773Z,3260
2017-05-04T12:10:27.224Z,3284
2017-05-04T12:11:27.882Z,3308
2017-05-04T12:12:27.339Z,3320
2017-05-04T12:13:27.695Z,3324
2017-05-04T12:14:28.054Z,3328
2017-05-04T12:15:28.112Z,3328
2017-05-04T12:16:28.168Z,3344
2017-05-04T12:17:28.222Z,3380
2017-05-04T12:18:28.280Z,3436
2017-05-04T12:19:28.340Z,3492
2017-05-04T12:20:28.398Z,3548
2017-05-04T12:21:28.154Z,3588
2017-05-04T12:22:28.506Z,3604
2017-05-04T12:23:28.564Z,3604
2017-05-04T12:24:28.325Z,3612
2017-05-04T12:25:28.686Z,3632
2017-05-04T12:26:28.734Z,3652
2017-05-04T12:27:28.794Z,3692
2017-05-04T12:28:28.854Z,3752
2017-05-04T12:29:28.928Z,3840
2017-05-04T12:30:28.961Z,3912
2017-05-04T12:31:29.017Z,3956
2017-05-04T12:32:29.074Z,3980
2017-05-04T12:33:29.130Z,3976
2017-05-04T12:34:29.191Z,3940
2017-05-04T12:35:28.947Z,3912
2017-05-04T12:36:29.297Z,3900
2017-05-04T12:37:29.355Z,3888
2017-05-04T12:38:29.413Z,3872
2017-05-04T12:39:29.467Z,3856
2017-05-04T12:40:29.226Z,3844
2017-05-04T12:41:29.580Z,3844
2017-05-04T12:42:29.337Z,3844
2017-05-04T12:43:29.694Z,3840
2017-05-04T12:44:29.753Z,3836
2017-05-04T12:45:29.503Z,3836
2017-05-04T12:46:29.869Z,3856
2017-05-04T12:47:29.923Z,3900
2017-05-04T12:48:29.979Z,3960
2017-05-04T12:49:29.733Z,4020
2017-05-04T12:50:29.789Z,4064
2017-05-04T12:51:29.849Z,4088
2017-05-04T12:52:29.900Z,4112
2017-05-04T12:53:29.961Z,4144
2017-05-04T12:54:30.319Z,4192
2017-05-04T12:55:30.385Z,4224
2017-05-04T12:56:30.443Z,4232
2017-05-04T12:57:30.505Z,4200
2017-05-04T12:58:30.247Z,4160
2017-05-04T12:59:30.601Z,4112
2017-05-04T13:00:30.353Z,4060
2017-05-04T13:01:30.714Z,4000
2017-05-04T13:02:30.470Z,3936
2017-05-04T13:03:30.528Z,3864
2017-05-04T13:04:30.880Z,3780
2017-05-04T13:05:30.937Z,3700
2017-05-04T13:06:30.992Z,3624
2017-05-04T13:07:31.058Z,3540
2017-05-04T13:08:31.110Z,3504
2017-05-04T13:09:31.164Z,3664
2017-05-04T13:10:31.222Z,3896
2017-05-04T13:11:31.280Z,4112
2017-05-04T13:12:31.336Z,4380
2017-05-04T13:13:31.390Z,4536
2017-05-04T13:14:31.445Z,4528
2017-05-04T13:15:31.502Z,4408
2017-05-04T13:16:31.559Z,4268
2017-05-04T13:17:31.617Z,4104
2017-05-04T13:18:31.674Z,3880
2017-05-04T13:19:31.426Z,3648
2017-05-04T13:20:31.783Z,3512
2017-05-04T13:21:31.845Z,3588
2017-05-04T13:22:31.894Z,3580
2017-05-04T13:23:31.952Z,3640
2017-05-04T13:24:32.011Z,3500
2017-05-04T13:25:32.074Z,3216
2017-05-04T13:26:32.127Z,2876
2017-05-04T13:27:32.178Z,2824
2017-05-04T13:28:32.234Z,2912
2017-05-04T13:29:32.297Z,3124
2017-05-04T13:30:32.350Z,3560
2017-05-04T13:31:32.404Z,4256
2017-05-04T13:32:32.463Z,4504
2017-05-04T13:33:32.521Z,4216
2017-05-04T13:34:32.574Z,4196
2017-05-04T13:35:32.629Z,4512
2017-05-04T13:36:32.689Z,4584
2017-05-04T13:37:32.443Z,4664
2017-05-04T13:38:32.800Z,4512
2017-05-04T13:39:32.856Z,4348
2017-05-04T13:40:32.916Z,4312
2017-05-04T13:41:32.968Z,4220
2017-05-04T13:42:33.022Z,4012
2017-05-04T13:43:32.781Z,3776
2017-05-04T13:44:33.139Z,3592
2017-05-04T13:45:33.198Z,3544